• Join FlightAware (Why Join?)
  • Login
  • US Flag 
01:55AM EDT


 

Airport Tracker/Info


-or-


 

Live Flight TrackerFlight Track Log ✈ SKW7363 ✈ 22-Jan-2014 ✈ KSLC - KTWF

Flight Track Log - Related Links

Times and Time Zones

All times are in EST time to prevent confusion due to time zone crossing. See the SKW7363 flight status page for this flight to view local times or setup timezone preferences in your user account.

Time Position Orientation Groundspeed Altitude Reporting Facility
EST Latitude Longitude Course Direction KTS MPH feet Rate Location/Type
07:17PM 40.7975 -111.9994 304° West 139 160 4,900  Level Salt Lake Center
07:17PM 40.8167 -112.0003 358° North 138 159 5,800 1,800 Climbing Salt Lake Center
07:17PM 40.8225 -112.0164 296° West 155 178 6,200 1,620 Climbing Salt Lake Center
07:18PM 40.8331 -112.0561 289° West 164 189 7,500 1,500 Climbing Salt Lake Center
07:18PM 40.8389 -112.0789 289° West 186 214 7,900 1,320 Climbing Salt Lake Center
07:19PM 40.8544 -112.1208 296° West 197 227 8,900 1,620 Climbing Salt Lake Center
07:20PM 40.8972 -112.1658 322° Northwest 195 224 10,800 1,500 Climbing Salt Lake Center
07:21PM 40.9394 -112.2125 320° Northwest 194 223 12,000 600 Climbing Salt Lake Center
07:22PM 41.0615 -112.3684 304° West  Level Estimated
07:22PM 41.0028 -112.2811 321° Northwest 246 283 12,100  Level Salt Lake Center
07:23PM 41.0575 -112.3400 321° Northwest 254 292 12,000 780 Descending Salt Lake Center
07:24PM 41.1086 -112.3950 321° Northwest 234 269 13,800 1,020 Climbing Salt Lake Center
07:25PM 41.1603 -112.4447 324° Northwest 231 266 14,100 900 Climbing Salt Lake Center
07:26PM 41.2053 -112.5072 314° West 234 269 15,700 1,500 Climbing Salt Lake Center
07:27PM 41.2447 -112.5714 309° West 226 260 17,200 1,320 Climbing Salt Lake Center
07:28PM 41.2872 -112.6344 312° West 226 260 18,500 1,260 Climbing Salt Lake Center
07:29PM 41.3275 -112.6958 311° West 225 259 19,800 660 Climbing Salt Lake Center
07:31PM 41.3717 -112.7636 311° West 243 280 19,900 60 Climbing Salt Lake Center
07:32PM 41.4311 -112.8528 312° West 268 308 20,000  Climbing Salt Lake Center
07:33PM 41.4794 -112.9275 311° West 265 305 20,000  Level Salt Lake Center
07:34PM 41.5258 -113.0011 310° West 261 300 20,000  Level Salt Lake Center
07:35PM 41.5733 -113.0714 312° West 257 296 20,000  Level Salt Lake Center
07:36PM 41.6217 -113.1411 313° West 256 295 20,000  Level Salt Lake Center
07:37PM 41.6669 -113.2125 310° West 254 292 20,000  Level Salt Lake Center
07:38PM 41.7125 -113.2839 311° West 253 291 20,000  Level Salt Lake Center
07:39PM 41.7575 -113.3547 310° West 251 289 20,000  Level Salt Lake Center
07:40PM 41.8031 -113.4244 311° West 250 288 20,000  Level Salt Lake Center
07:41PM 41.8594 -113.5111 311° West 254 292 20,000  Level Salt Lake Center
07:42PM 41.9075 -113.5864 311° West 263 303 20,000  Level Salt Lake Center
07:43PM 41.9542 -113.6589 311° West 258 297 20,000 -600 Level Salt Lake Center
07:44PM 42.0011 -113.7306 311° West 256 295 18,900 -1,080 Descending Salt Lake Center
07:45PM 42.0486 -113.8058 310° West 262 302 17,800 -1,320 Descending Salt Lake Center
07:46PM 42.0975 -113.8803 312° West 265 305 16,200 -1,560 Descending Salt Lake Center
07:47PM 42.1447 -113.9542 311° West 263 303 14,700 -1,260 Descending Salt Lake Center
07:48PM 42.1894 -114.0247 311° West 255 293 13,700 -1,080 Descending Salt Lake Center
07:49PM 42.2350 -114.0956 311° West 247 284 12,600 -1,440 Descending Salt Lake Center
07:50PM 42.2933 -114.1900 310° West 185 213 10,300 -1,080 Descending Salt Lake Center
07:51PM 42.3342 -114.2508 312° West 208 239 10,000 -180 Descending Salt Lake Center
07:52PM 42.3828 -114.2206 25° Northeast 209 241 10,000  Level Salt Lake Center
07:53PM 42.4419 -114.2111 North 206 237 10,000 -180 Level Salt Lake Center
07:54PM 42.4783 -114.2642 313° West 206 237 9,700 -300 Descending Salt Lake Center